sensor_id;sensor_type;location;lat;lon;timestamp;P1;durP1;ratioP1;P2;durP2;ratioP2
28481;SDS011;15703;49.588;6.260;2023-08-17T00:02:18;33.20;;;9.43;;
28481;SDS011;15703;49.588;6.260;2023-08-17T00:04:40;17.45;;;8.45;;
28481;SDS011;15703;49.588;6.260;2023-08-17T00:07:03;9.25;;;7.55;;
28481;SDS011;15703;49.588;6.260;2023-08-17T00:09:25;21.08;;;9.75;;
28481;SDS011;15703;49.588;6.260;2023-08-17T00:11:47;9.73;;;8.55;;
28481;SDS011;15703;49.588;6.260;2023-08-17T00:14:09;18.08;;;9.40;;
28481;SDS011;15703;49.588;6.260;2023-08-17T00:16:32;27.80;;;10.68;;
28481;SDS011;15703;49.588;6.260;2023-08-17T00:18:54;15.77;;;9.98;;
28481;SDS011;15703;49.588;6.260;2023-08-17T00:21:16;14.70;;;9.00;;
28481;SDS011;15703;49.588;6.260;2023-08-17T00:23:39;22.17;;;10.38;;
28481;SDS011;15703;49.588;6.260;2023-08-17T00:26:01;14.30;;;9.75;;
28481;SDS011;15703;49.588;6.260;2023-08-17T00:28:24;12.02;;;9.27;;
28481;SDS011;15703;49.588;6.260;2023-08-17T00:30:46;28.73;;;10.52;;
28481;SDS011;15703;49.588;6.260;2023-08-17T00:33:09;14.35;;;9.85;;
28481;SDS011;15703;49.588;6.260;2023-08-17T00:35:32;18.08;;;10.57;;
28481;SDS011;15703;49.588;6.260;2023-08-17T00:37:54;20.02;;;10.95;;
28481;SDS011;15703;49.588;6.260;2023-08-17T00:40:16;20.30;;;11.93;;
28481;SDS011;15703;49.588;6.260;2023-08-17T00:42:38;19.67;;;10.63;;
28481;SDS011;15703;49.588;6.260;2023-08-17T00:45:01;31.42;;;11.15;;
28481;SDS011;15703;49.588;6.260;2023-08-17T00:47:24;15.55;;;10.13;;
28481;SDS011;15703;49.588;6.260;2023-08-17T00:49:47;34.42;;;11.63;;
28481;SDS011;15703;49.588;6.260;2023-08-17T00:52:09;18.33;;;10.00;;
28481;SDS011;15703;49.588;6.260;2023-08-17T00:54:31;19.40;;;11.10;;
28481;SDS011;15703;49.588;6.260;2023-08-17T00:56:54;23.00;;;10.95;;
28481;SDS011;15703;49.588;6.260;2023-08-17T00:59:16;17.88;;;9.60;;
28481;SDS011;15703;49.588;6.260;2023-08-17T01:01:39;12.32;;;9.00;;
28481;SDS011;15703;49.588;6.260;2023-08-17T01:04:01;14.50;;;9.73;;
28481;SDS011;15703;49.588;6.260;2023-08-17T01:06:24;14.63;;;10.18;;
28481;SDS011;15703;49.588;6.260;2023-08-17T01:08:47;14.32;;;8.75;;
28481;SDS011;15703;49.588;6.260;2023-08-17T01:11:20;16.40;;;10.32;;
28481;SDS011;15703;49.588;6.260;2023-08-17T01:13:55;17.05;;;10.05;;
28481;SDS011;15703;49.588;6.260;2023-08-17T01:16:24;21.42;;;10.73;;
28481;SDS011;15703;49.588;6.260;2023-08-17T01:18:47;26.45;;;11.65;;
28481;SDS011;15703;49.588;6.260;2023-08-17T01:21:11;16.08;;;10.98;;
28481;SDS011;15703;49.588;6.260;2023-08-17T01:23:35;21.15;;;11.95;;
28481;SDS011;15703;49.588;6.260;2023-08-17T01:25:58;34.25;;;11.55;;
28481;SDS011;15703;49.588;6.260;2023-08-17T01:28:20;20.88;;;10.65;;
28481;SDS011;15703;49.588;6.260;2023-08-17T01:30:47;20.23;;;10.43;;
28481;SDS011;15703;49.588;6.260;2023-08-17T01:33:11;29.17;;;11.18;;
28481;SDS011;15703;49.588;6.260;2023-08-17T01:35:46;33.80;;;12.13;;
28481;SDS011;15703;49.588;6.260;2023-08-17T01:38:12;30.63;;;12.95;;
28481;SDS011;15703;49.588;6.260;2023-08-17T01:40:34;15.10;;;10.48;;
28481;SDS011;15703;49.588;6.260;2023-08-17T01:42:56;20.25;;;11.75;;
28481;SDS011;15703;49.588;6.260;2023-08-17T01:45:19;29.73;;;12.05;;
28481;SDS011;15703;49.588;6.260;2023-08-17T01:47:41;17.88;;;11.50;;
28481;SDS011;15703;49.588;6.260;2023-08-17T01:50:04;24.00;;;12.30;;
28481;SDS011;15703;49.588;6.260;2023-08-17T01:52:27;25.52;;;12.45;;
28481;SDS011;15703;49.588;6.260;2023-08-17T01:54:50;20.27;;;12.43;;
28481;SDS011;15703;49.588;6.260;2023-08-17T01:57:12;24.50;;;12.90;;
28481;SDS011;15703;49.588;6.260;2023-08-17T01:59:35;23.70;;;12.48;;
28481;SDS011;15703;49.588;6.260;2023-08-17T02:01:57;16.80;;;11.93;;
28481;SDS011;15703;49.588;6.260;2023-08-17T02:04:19;18.13;;;12.00;;
28481;SDS011;15703;49.588;6.260;2023-08-17T02:06:42;26.80;;;13.25;;
28481;SDS011;15703;49.588;6.260;2023-08-17T02:09:04;24.00;;;13.15;;
28481;SDS011;15703;49.588;6.260;2023-08-17T02:11:26;33.70;;;14.07;;
28481;SDS011;15703;49.588;6.260;2023-08-17T02:13:49;33.53;;;15.38;;
28481;SDS011;15703;49.588;6.260;2023-08-17T02:16:11;30.52;;;14.07;;
28481;SDS011;15703;49.588;6.260;2023-08-17T02:18:34;24.05;;;12.88;;
28481;SDS011;15703;49.588;6.260;2023-08-17T02:20:56;21.35;;;13.27;;
28481;SDS011;15703;49.588;6.260;2023-08-17T02:23:18;26.20;;;13.23;;
28481;SDS011;15703;49.588;6.260;2023-08-17T02:25:41;21.80;;;13.45;;
28481;SDS011;15703;49.588;6.260;2023-08-17T02:28:03;47.72;;;15.25;;
28481;SDS011;15703;49.588;6.260;2023-08-17T02:30:26;18.70;;;12.73;;
28481;SDS011;15703;49.588;6.260;2023-08-17T02:32:48;21.00;;;12.65;;
28481;SDS011;15703;49.588;6.260;2023-08-17T02:35:11;21.00;;;13.68;;
28481;SDS011;15703;49.588;6.260;2023-08-17T02:37:33;18.50;;;12.80;;
28481;SDS011;15703;49.588;6.260;2023-08-17T02:39:56;40.05;;;14.45;;
28481;SDS011;15703;49.588;6.260;2023-08-17T02:42:20;35.10;;;13.93;;
28481;SDS011;15703;49.588;6.260;2023-08-17T02:44:43;22.00;;;13.13;;
28481;SDS011;15703;49.588;6.260;2023-08-17T02:47:05;26.45;;;14.93;;
28481;SDS011;15703;49.588;6.260;2023-08-17T02:49:27;21.58;;;13.18;;
28481;SDS011;15703;49.588;6.260;2023-08-17T02:51:50;27.38;;;14.32;;
28481;SDS011;15703;49.588;6.260;2023-08-17T02:54:12;20.98;;;12.63;;
28481;SDS011;15703;49.588;6.260;2023-08-17T02:56:35;16.95;;;11.57;;
28481;SDS011;15703;49.588;6.260;2023-08-17T02:58:57;16.23;;;10.70;;
28481;SDS011;15703;49.588;6.260;2023-08-17T03:01:19;16.58;;;11.52;;
28481;SDS011;15703;49.588;6.260;2023-08-17T03:03:43;20.05;;;11.80;;
28481;SDS011;15703;49.588;6.260;2023-08-17T03:06:05;16.63;;;11.10;;
28481;SDS011;15703;49.588;6.260;2023-08-17T03:08:28;16.25;;;10.63;;
28481;SDS011;15703;49.588;6.260;2023-08-17T03:10:50;22.10;;;11.90;;
28481;SDS011;15703;49.588;6.260;2023-08-17T03:13:13;26.38;;;12.90;;
28481;SDS011;15703;49.588;6.260;2023-08-17T03:15:35;26.52;;;13.07;;
28481;SDS011;15703;49.588;6.260;2023-08-17T03:18:01;18.65;;;11.20;;
28481;SDS011;15703;49.588;6.260;2023-08-17T03:20:24;25.70;;;11.52;;
28481;SDS011;15703;49.588;6.260;2023-08-17T03:22:46;16.58;;;11.43;;
28481;SDS011;15703;49.588;6.260;2023-08-17T03:25:09;20.27;;;11.40;;
28481;SDS011;15703;49.588;6.260;2023-08-17T03:27:31;28.90;;;12.65;;
28481;SDS011;15703;49.588;6.260;2023-08-17T03:29:55;21.92;;;12.65;;
28481;SDS011;15703;49.588;6.260;2023-08-17T03:32:17;19.52;;;11.75;;
28481;SDS011;15703;49.588;6.260;2023-08-17T03:34:39;24.92;;;13.57;;
28481;SDS011;15703;49.588;6.260;2023-08-17T03:37:03;19.88;;;12.15;;
28481;SDS011;15703;49.588;6.260;2023-08-17T03:39:26;21.95;;;12.45;;
28481;SDS011;15703;49.588;6.260;2023-08-17T03:41:48;20.35;;;11.05;;
28481;SDS011;15703;49.588;6.260;2023-08-17T03:44:10;16.75;;;12.15;;
28481;SDS011;15703;49.588;6.260;2023-08-17T03:46:35;17.98;;;12.30;;
28481;SDS011;15703;49.588;6.260;2023-08-17T03:48:58;16.98;;;10.75;;
28481;SDS011;15703;49.588;6.260;2023-08-17T03:51:21;15.65;;;11.27;;
28481;SDS011;15703;49.588;6.260;2023-08-17T03:53:43;23.52;;;13.18;;
28481;SDS011;15703;49.588;6.260;2023-08-17T03:56:05;22.65;;;13.65;;
28481;SDS011;15703;49.588;6.260;2023-08-17T03:58:27;18.90;;;11.95;;
28481;SDS011;15703;49.588;6.260;2023-08-17T04:00:54;20.92;;;11.80;;
28481;SDS011;15703;49.588;6.260;2023-08-17T04:03:21;32.03;;;13.52;;
28481;SDS011;15703;49.588;6.260;2023-08-17T04:05:43;21.08;;;12.43;;
28481;SDS011;15703;49.588;6.260;2023-08-17T04:08:06;26.05;;;13.57;;
28481;SDS011;15703;49.588;6.260;2023-08-17T04:10:28;25.45;;;13.27;;
28481;SDS011;15703;49.588;6.260;2023-08-17T04:12:50;27.75;;;13.40;;
28481;SDS011;15703;49.588;6.260;2023-08-17T04:15:13;25.00;;;11.95;;
28481;SDS011;15703;49.588;6.260;2023-08-17T04:17:35;24.23;;;12.95;;
28481;SDS011;15703;49.588;6.260;2023-08-17T04:19:58;22.75;;;12.95;;
28481;SDS011;15703;49.588;6.260;2023-08-17T04:22:21;25.83;;;13.38;;
28481;SDS011;15703;49.588;6.260;2023-08-17T04:24:43;63.10;;;16.83;;
28481;SDS011;15703;49.588;6.260;2023-08-17T04:27:06;25.45;;;12.98;;
28481;SDS011;15703;49.588;6.260;2023-08-17T04:29:28;17.92;;;12.00;;
28481;SDS011;15703;49.588;6.260;2023-08-17T04:31:53;18.25;;;12.20;;
28481;SDS011;15703;49.588;6.260;2023-08-17T04:34:15;18.23;;;11.40;;
28481;SDS011;15703;49.588;6.260;2023-08-17T04:36:37;18.83;;;11.73;;
28481;SDS011;15703;49.588;6.260;2023-08-17T04:39:00;21.35;;;11.18;;
28481;SDS011;15703;49.588;6.260;2023-08-17T04:41:22;17.20;;;10.10;;
28481;SDS011;15703;49.588;6.260;2023-08-17T04:43:45;19.35;;;10.25;;
28481;SDS011;15703;49.588;6.260;2023-08-17T04:46:08;17.75;;;10.93;;
28481;SDS011;15703;49.588;6.260;2023-08-17T04:48:31;13.95;;;11.02;;
28481;SDS011;15703;49.588;6.260;2023-08-17T04:50:54;15.85;;;10.13;;
28481;SDS011;15703;49.588;6.260;2023-08-17T04:53:16;21.95;;;10.50;;
28481;SDS011;15703;49.588;6.260;2023-08-17T04:55:39;14.07;;;10.23;;
28481;SDS011;15703;49.588;6.260;2023-08-17T04:58:01;21.02;;;11.27;;
28481;SDS011;15703;49.588;6.260;2023-08-17T05:00:24;28.50;;;11.32;;
28481;SDS011;15703;49.588;6.260;2023-08-17T05:02:50;28.08;;;12.40;;
28481;SDS011;15703;49.588;6.260;2023-08-17T05:05:13;28.73;;;12.13;;
28481;SDS011;15703;49.588;6.260;2023-08-17T05:07:35;18.83;;;10.93;;
28481;SDS011;15703;49.588;6.260;2023-08-17T05:09:58;13.07;;;9.48;;
28481;SDS011;15703;49.588;6.260;2023-08-17T05:12:20;11.93;;;8.90;;
28481;SDS011;15703;49.588;6.260;2023-08-17T05:14:42;12.30;;;8.95;;
28481;SDS011;15703;49.588;6.260;2023-08-17T05:17:05;15.43;;;10.25;;
28481;SDS011;15703;49.588;6.260;2023-08-17T05:19:27;18.10;;;10.20;;
28481;SDS011;15703;49.588;6.260;2023-08-17T05:21:51;16.48;;;10.07;;
28481;SDS011;15703;49.588;6.260;2023-08-17T05:24:15;18.33;;;9.32;;
28481;SDS011;15703;49.588;6.260;2023-08-17T05:26:38;15.18;;;9.20;;
28481;SDS011;15703;49.588;6.260;2023-08-17T05:29:00;12.73;;;9.18;;
28481;SDS011;15703;49.588;6.260;2023-08-17T05:31:22;11.38;;;8.93;;
28481;SDS011;15703;49.588;6.260;2023-08-17T05:33:46;22.38;;;10.27;;
28481;SDS011;15703;49.588;6.260;2023-08-17T05:36:09;15.50;;;9.77;;
28481;SDS011;15703;49.588;6.260;2023-08-17T05:38:32;14.82;;;10.02;;
28481;SDS011;15703;49.588;6.260;2023-08-17T05:40:55;13.50;;;8.77;;
28481;SDS011;15703;49.588;6.260;2023-08-17T05:43:18;14.32;;;9.65;;
28481;SDS011;15703;49.588;6.260;2023-08-17T05:45:40;13.38;;;9.70;;
28481;SDS011;15703;49.588;6.260;2023-08-17T05:48:03;17.63;;;9.98;;
28481;SDS011;15703;49.588;6.260;2023-08-17T05:50:25;18.08;;;10.88;;
28481;SDS011;15703;49.588;6.260;2023-08-17T05:52:47;15.75;;;10.40;;
28481;SDS011;15703;49.588;6.260;2023-08-17T05:55:10;15.77;;;10.45;;
28481;SDS011;15703;49.588;6.260;2023-08-17T05:57:32;13.40;;;9.93;;
28481;SDS011;15703;49.588;6.260;2023-08-17T05:59:54;13.90;;;9.57;;
28481;SDS011;15703;49.588;6.260;2023-08-17T06:02:17;15.27;;;10.13;;
28481;SDS011;15703;49.588;6.260;2023-08-17T06:04:40;12.80;;;9.23;;
28481;SDS011;15703;49.588;6.260;2023-08-17T06:07:02;13.57;;;9.10;;
28481;SDS011;15703;49.588;6.260;2023-08-17T06:09:25;13.85;;;9.73;;
28481;SDS011;15703;49.588;6.260;2023-08-17T06:11:47;12.65;;;9.18;;
28481;SDS011;15703;49.588;6.260;2023-08-17T06:14:09;11.10;;;8.57;;
28481;SDS011;15703;49.588;6.260;2023-08-17T06:16:32;8.77;;;7.70;;
28481;SDS011;15703;49.588;6.260;2023-08-17T06:18:54;8.95;;;7.45;;
28481;SDS011;15703;49.588;6.260;2023-08-17T06:21:16;7.82;;;6.90;;
28481;SDS011;15703;49.588;6.260;2023-08-17T06:23:39;9.40;;;6.78;;
28481;SDS011;15703;49.588;6.260;2023-08-17T06:26:01;9.43;;;6.65;;
28481;SDS011;15703;49.588;6.260;2023-08-17T06:28:24;8.05;;;6.55;;
28481;SDS011;15703;49.588;6.260;2023-08-17T06:30:47;6.93;;;5.43;;
28481;SDS011;15703;49.588;6.260;2023-08-17T06:33:13;6.35;;;5.70;;
28481;SDS011;15703;49.588;6.260;2023-08-17T06:35:36;7.53;;;6.07;;
28481;SDS011;15703;49.588;6.260;2023-08-17T06:37:58;7.60;;;6.05;;
28481;SDS011;15703;49.588;6.260;2023-08-17T06:40:25;8.10;;;6.05;;
28481;SDS011;15703;49.588;6.260;2023-08-17T06:42:47;9.20;;;6.30;;
28481;SDS011;15703;49.588;6.260;2023-08-17T06:45:10;6.28;;;5.15;;
28481;SDS011;15703;49.588;6.260;2023-08-17T06:47:32;5.95;;;5.35;;
28481;SDS011;15703;49.588;6.260;2023-08-17T06:49:55;7.50;;;5.57;;
28481;SDS011;15703;49.588;6.260;2023-08-17T06:52:18;5.85;;;5.30;;
28481;SDS011;15703;49.588;6.260;2023-08-17T06:54:41;5.72;;;5.20;;
28481;SDS011;15703;49.588;6.260;2023-08-17T06:57:03;5.70;;;5.20;;
28481;SDS011;15703;49.588;6.260;2023-08-17T06:59:26;5.68;;;5.10;;
28481;SDS011;15703;49.588;6.260;2023-08-17T07:01:48;6.97;;;5.05;;
28481;SDS011;15703;49.588;6.260;2023-08-17T07:04:10;5.68;;;5.13;;
28481;SDS011;15703;49.588;6.260;2023-08-17T07:06:33;7.53;;;5.32;;
28481;SDS011;15703;49.588;6.260;2023-08-17T07:08:55;5.75;;;5.15;;
28481;SDS011;15703;49.588;6.260;2023-08-17T07:11:18;4.68;;;4.28;;
28481;SDS011;15703;49.588;6.260;2023-08-17T07:13:40;5.30;;;4.45;;
28481;SDS011;15703;49.588;6.260;2023-08-17T07:16:03;5.65;;;5.10;;
28481;SDS011;15703;49.588;6.260;2023-08-17T07:18:27;6.53;;;4.72;;
28481;SDS011;15703;49.588;6.260;2023-08-17T07:20:49;6.22;;;5.00;;
28481;SDS011;15703;49.588;6.260;2023-08-17T07:23:11;5.63;;;4.65;;
28481;SDS011;15703;49.588;6.260;2023-08-17T07:25:34;4.85;;;4.20;;
28481;SDS011;15703;49.588;6.260;2023-08-17T07:27:56;5.05;;;4.55;;
28481;SDS011;15703;49.588;6.260;2023-08-17T07:30:18;7.18;;;4.63;;
28481;SDS011;15703;49.588;6.260;2023-08-17T07:32:40;6.25;;;4.65;;
28481;SDS011;15703;49.588;6.260;2023-08-17T07:35:03;4.35;;;4.05;;
28481;SDS011;15703;49.588;6.260;2023-08-17T07:37:25;4.75;;;4.32;;
28481;SDS011;15703;49.588;6.260;2023-08-17T07:39:54;4.97;;;4.57;;
28481;SDS011;15703;49.588;6.260;2023-08-17T07:42:17;4.40;;;4.00;;
28481;SDS011;15703;49.588;6.260;2023-08-17T07:44:39;4.85;;;4.30;;
28481;SDS011;15703;49.588;6.260;2023-08-17T07:47:03;4.50;;;4.07;;
28481;SDS011;15703;49.588;6.260;2023-08-17T07:49:25;6.05;;;4.43;;
28481;SDS011;15703;49.588;6.260;2023-08-17T07:51:53;4.53;;;4.13;;
28481;SDS011;15703;49.588;6.260;2023-08-17T07:54:15;5.88;;;5.10;;
28481;SDS011;15703;49.588;6.260;2023-08-17T07:56:38;4.60;;;4.20;;
28481;SDS011;15703;49.588;6.260;2023-08-17T07:59:00;4.40;;;4.00;;
28481;SDS011;15703;49.588;6.260;2023-08-17T08:01:22;4.18;;;3.72;;
28481;SDS011;15703;49.588;6.260;2023-08-17T08:03:45;4.65;;;4.25;;
28481;SDS011;15703;49.588;6.260;2023-08-17T08:06:13;4.20;;;3.90;;
28481;SDS011;15703;49.588;6.260;2023-08-17T08:08:35;4.22;;;3.88;;
28481;SDS011;15703;49.588;6.260;2023-08-17T08:10:58;4.93;;;3.67;;
28481;SDS011;15703;49.588;6.260;2023-08-17T08:13:20;3.78;;;3.38;;
28481;SDS011;15703;49.588;6.260;2023-08-17T08:15:43;3.58;;;3.22;;
28481;SDS011;15703;49.588;6.260;2023-08-17T08:18:05;3.03;;;2.83;;
28481;SDS011;15703;49.588;6.260;2023-08-17T08:20:28;3.75;;;3.45;;
28481;SDS011;15703;49.588;6.260;2023-08-17T08:22:51;4.00;;;3.70;;
28481;SDS011;15703;49.588;6.260;2023-08-17T08:25:14;4.28;;;3.88;;
28481;SDS011;15703;49.588;6.260;2023-08-17T08:27:36;4.70;;;4.30;;
28481;SDS011;15703;49.588;6.260;2023-08-17T08:29:59;4.47;;;4.07;;
28481;SDS011;15703;49.588;6.260;2023-08-17T08:32:21;3.92;;;3.58;;
28481;SDS011;15703;49.588;6.260;2023-08-17T08:34:44;3.95;;;3.55;;
28481;SDS011;15703;49.588;6.260;2023-08-17T08:37:06;4.63;;;4.15;;
28481;SDS011;15703;49.588;6.260;2023-08-17T08:39:29;4.15;;;3.75;;
28481;SDS011;15703;49.588;6.260;2023-08-17T08:41:51;4.32;;;3.92;;
28481;SDS011;15703;49.588;6.260;2023-08-17T08:44:13;4.53;;;3.83;;
28481;SDS011;15703;49.588;6.260;2023-08-17T08:46:36;4.30;;;3.60;;
28481;SDS011;15703;49.588;6.260;2023-08-17T08:48:59;4.25;;;3.55;;
28481;SDS011;15703;49.588;6.260;2023-08-17T08:51:25;4.30;;;3.90;;
28481;SDS011;15703;49.588;6.260;2023-08-17T08:53:50;6.43;;;4.60;;
28481;SDS011;15703;49.588;6.260;2023-08-17T08:56:17;4.43;;;4.00;;
28481;SDS011;15703;49.588;6.260;2023-08-17T08:58:40;3.53;;;3.00;;
28481;SDS011;15703;49.588;6.260;2023-08-17T09:01:03;3.40;;;3.10;;
28481;SDS011;15703;49.588;6.260;2023-08-17T09:03:29;4.45;;;4.10;;
28481;SDS011;15703;49.588;6.260;2023-08-17T09:05:53;3.97;;;3.65;;
28481;SDS011;15703;49.588;6.260;2023-08-17T09:08:20;4.10;;;3.70;;
28481;SDS011;15703;49.588;6.260;2023-08-17T09:10:42;4.50;;;3.35;;
28481;SDS011;15703;49.588;6.260;2023-08-17T09:13:05;3.47;;;3.28;;
28481;SDS011;15703;49.588;6.260;2023-08-17T09:15:27;4.28;;;3.88;;
28481;SDS011;15703;49.588;6.260;2023-08-17T09:17:50;4.10;;;3.70;;
28481;SDS011;15703;49.588;6.260;2023-08-17T09:20:17;4.20;;;3.80;;
28481;SDS011;15703;49.588;6.260;2023-08-17T09:22:55;4.55;;;4.10;;
28481;SDS011;15703;49.588;6.260;2023-08-17T09:25:22;3.80;;;3.50;;
28481;SDS011;15703;49.588;6.260;2023-08-17T09:27:44;4.00;;;3.70;;
28481;SDS011;15703;49.588;6.260;2023-08-17T09:30:08;6.22;;;2.97;;
28481;SDS011;15703;49.588;6.260;2023-08-17T09:32:32;3.70;;;3.40;;
28481;SDS011;15703;49.588;6.260;2023-08-17T09:34:55;3.60;;;3.22;;
28481;SDS011;15703;49.588;6.260;2023-08-17T09:37:17;3.70;;;3.08;;
28481;SDS011;15703;49.588;6.260;2023-08-17T09:39:39;3.70;;;3.40;;
28481;SDS011;15703;49.588;6.260;2023-08-17T09:42:01;4.18;;;3.83;;
28481;SDS011;15703;49.588;6.260;2023-08-17T09:44:24;3.58;;;3.20;;
28481;SDS011;15703;49.588;6.260;2023-08-17T09:46:46;4.82;;;4.32;;
28481;SDS011;15703;49.588;6.260;2023-08-17T09:49:09;4.20;;;3.80;;
28481;SDS011;15703;49.588;6.260;2023-08-17T09:51:31;5.70;;;4.03;;
28481;SDS011;15703;49.588;6.260;2023-08-17T09:53:54;4.93;;;4.53;;
28481;SDS011;15703;49.588;6.260;2023-08-17T09:56:21;4.68;;;4.28;;
28481;SDS011;15703;49.588;6.260;2023-08-17T09:58:43;5.95;;;4.85;;
28481;SDS011;15703;49.588;6.260;2023-08-17T10:01:06;5.30;;;4.80;;
28481;SDS011;15703;49.588;6.260;2023-08-17T10:03:29;5.30;;;4.80;;
28481;SDS011;15703;49.588;6.260;2023-08-17T10:06:06;5.88;;;4.82;;
28481;SDS011;15703;49.588;6.260;2023-08-17T10:08:31;5.57;;;5.07;;
28481;SDS011;15703;49.588;6.260;2023-08-17T10:11:00;6.45;;;5.85;;
28481;SDS011;15703;49.588;6.260;2023-08-17T10:13:41;4.95;;;4.55;;
28481;SDS011;15703;49.588;6.260;2023-08-17T10:16:18;6.18;;;5.60;;
28481;SDS011;15703;49.588;6.260;2023-08-17T10:18:54;5.93;;;5.32;;
28481;SDS011;15703;49.588;6.260;2023-08-17T10:21:21;7.07;;;5.82;;
28481;SDS011;15703;49.588;6.260;2023-08-17T10:23:44;6.38;;;5.32;;
28481;SDS011;15703;49.588;6.260;2023-08-17T10:26:07;7.00;;;6.40;;
28481;SDS011;15703;49.588;6.260;2023-08-17T10:28:33;6.55;;;5.85;;
28481;SDS011;15703;49.588;6.260;2023-08-17T10:30:56;5.97;;;4.75;;
28481;SDS011;15703;49.588;6.260;2023-08-17T10:33:18;4.43;;;4.03;;
28481;SDS011;15703;49.588;6.260;2023-08-17T10:35:41;5.30;;;4.80;;
28481;SDS011;15703;49.588;6.260;2023-08-17T10:38:03;4.45;;;4.00;;
28481;SDS011;15703;49.588;6.260;2023-08-17T10:40:38;5.78;;;5.05;;
28481;SDS011;15703;49.588;6.260;2023-08-17T10:43:01;6.05;;;5.53;;
28481;SDS011;15703;49.588;6.260;2023-08-17T10:45:25;5.07;;;4.57;;
28481;SDS011;15703;49.588;6.260;2023-08-17T10:48:24;3.65;;;3.35;;
28481;SDS011;15703;49.588;6.260;2023-08-17T10:55:37;4.70;;;4.18;;
28481;SDS011;15703;49.588;6.260;2023-08-17T10:58:01;5.07;;;4.68;;
28481;SDS011;15703;49.588;6.260;2023-08-17T11:00:23;4.15;;;3.75;;
28481;SDS011;15703;49.588;6.260;2023-08-17T11:05:14;4.07;;;3.47;;
28481;SDS011;15703;49.588;6.260;2023-08-17T11:07:41;5.55;;;3.75;;
28481;SDS011;15703;49.588;6.260;2023-08-17T11:12:42;4.63;;;3.03;;
28481;SDS011;15703;49.588;6.260;2023-08-17T11:15:04;4.13;;;3.10;;
28481;SDS011;15703;49.588;6.260;2023-08-17T11:17:26;3.60;;;3.00;;
28481;SDS011;15703;49.588;6.260;2023-08-17T11:19:49;3.10;;;2.75;;
28481;SDS011;15703;49.588;6.260;2023-08-17T11:22:12;3.45;;;2.38;;
28481;SDS011;15703;49.588;6.260;2023-08-17T11:24:34;2.90;;;2.70;;
28481;SDS011;15703;49.588;6.260;2023-08-17T11:27:00;3.15;;;2.53;;
28481;SDS011;15703;49.588;6.260;2023-08-17T11:29:23;4.30;;;3.20;;
28481;SDS011;15703;49.588;6.260;2023-08-17T11:31:49;2.55;;;2.35;;
28481;SDS011;15703;49.588;6.260;2023-08-17T11:34:14;3.45;;;2.85;;
28481;SDS011;15703;49.588;6.260;2023-08-17T11:36:37;4.03;;;3.60;;
28481;SDS011;15703;49.588;6.260;2023-08-17T11:38:59;4.05;;;3.75;;
28481;SDS011;15703;49.588;6.260;2023-08-17T11:41:21;3.60;;;3.22;;
28481;SDS011;15703;49.588;6.260;2023-08-17T11:43:43;3.80;;;3.50;;
28481;SDS011;15703;49.588;6.260;2023-08-17T11:46:06;2.58;;;2.30;;
28481;SDS011;15703;49.588;6.260;2023-08-17T11:48:28;2.60;;;2.33;;
28481;SDS011;15703;49.588;6.260;2023-08-17T11:50:58;2.42;;;2.10;;
28481;SDS011;15703;49.588;6.260;2023-08-17T11:53:21;2.28;;;2.10;;
28481;SDS011;15703;49.588;6.260;2023-08-17T11:55:43;2.22;;;1.92;;
28481;SDS011;15703;49.588;6.260;2023-08-17T11:58:06;3.63;;;2.10;;
28481;SDS011;15703;49.588;6.260;2023-08-17T12:00:34;2.50;;;1.75;;
28481;SDS011;15703;49.588;6.260;2023-08-17T12:02:58;3.47;;;2.92;;
28481;SDS011;15703;49.588;6.260;2023-08-17T12:05:21;3.70;;;2.97;;
28481;SDS011;15703;49.588;6.260;2023-08-17T12:07:45;4.22;;;2.78;;
28481;SDS011;15703;49.588;6.260;2023-08-17T12:10:10;4.03;;;2.67;;
28481;SDS011;15703;49.588;6.260;2023-08-17T12:12:58;2.80;;;2.60;;
28481;SDS011;15703;49.588;6.260;2023-08-17T12:18:57;2.50;;;2.30;;
28481;SDS011;15703;49.588;6.260;2023-08-17T12:21:22;2.78;;;2.20;;
28481;SDS011;15703;49.588;6.260;2023-08-17T12:23:45;3.47;;;2.70;;
28481;SDS011;15703;49.588;6.260;2023-08-17T12:26:08;2.47;;;2.15;;
28481;SDS011;15703;49.588;6.260;2023-08-17T12:28:30;4.38;;;2.50;;
28481;SDS011;15703;49.588;6.260;2023-08-17T12:30:57;6.55;;;2.50;;
28481;SDS011;15703;49.588;6.260;2023-08-17T12:33:20;3.90;;;2.60;;
28481;SDS011;15703;49.588;6.260;2023-08-17T12:35:45;3.70;;;2.72;;
28481;SDS011;15703;49.588;6.260;2023-08-17T12:38:08;2.78;;;2.55;;
28481;SDS011;15703;49.588;6.260;2023-08-17T12:40:34;4.43;;;2.53;;
28481;SDS011;15703;49.588;6.260;2023-08-17T12:46:15;3.58;;;3.00;;
28481;SDS011;15703;49.588;6.260;2023-08-17T12:48:38;3.65;;;3.03;;
28481;SDS011;15703;49.588;6.260;2023-08-17T12:51:00;2.90;;;2.70;;
28481;SDS011;15703;49.588;6.260;2023-08-17T12:53:25;2.47;;;2.28;;
28481;SDS011;15703;49.588;6.260;2023-08-17T12:55:47;5.65;;;2.58;;
28481;SDS011;15703;49.588;6.260;2023-08-17T12:58:15;3.08;;;2.38;;
28481;SDS011;15703;49.588;6.260;2023-08-17T13:00:38;2.33;;;2.13;;
28481;SDS011;15703;49.588;6.260;2023-08-17T13:03:00;3.05;;;2.38;;
28481;SDS011;15703;49.588;6.260;2023-08-17T13:05:22;4.45;;;2.30;;
28481;SDS011;15703;49.588;6.260;2023-08-17T13:07:45;3.70;;;2.50;;
28481;SDS011;15703;49.588;6.260;2023-08-17T13:10:07;2.28;;;2.08;;
28481;SDS011;15703;49.588;6.260;2023-08-17T13:12:29;4.03;;;2.45;;
28481;SDS011;15703;49.588;6.260;2023-08-17T13:14:51;2.33;;;2.13;;
28481;SDS011;15703;49.588;6.260;2023-08-17T13:17:14;2.33;;;1.95;;
28481;SDS011;15703;49.588;6.260;2023-08-17T13:19:38;1.83;;;1.70;;
28481;SDS011;15703;49.588;6.260;2023-08-17T13:22:01;1.67;;;1.58;;
28481;SDS011;15703;49.588;6.260;2023-08-17T13:24:24;3.20;;;1.83;;
28481;SDS011;15703;49.588;6.260;2023-08-17T13:26:46;1.55;;;1.45;;
28481;SDS011;15703;49.588;6.260;2023-08-17T13:29:12;3.05;;;1.67;;
28481;SDS011;15703;49.588;6.260;2023-08-17T13:31:35;2.38;;;1.48;;
28481;SDS011;15703;49.588;6.260;2023-08-17T13:33:57;2.65;;;1.88;;
28481;SDS011;15703;49.588;6.260;2023-08-17T13:36:19;2.70;;;1.85;;
28481;SDS011;15703;49.588;6.260;2023-08-17T13:38:41;1.90;;;1.80;;
28481;SDS011;15703;49.588;6.260;2023-08-17T13:41:05;2.10;;;1.50;;
28481;SDS011;15703;49.588;6.260;2023-08-17T13:43:28;1.83;;;1.73;;
28481;SDS011;15703;49.588;6.260;2023-08-17T13:45:50;1.60;;;1.50;;
28481;SDS011;15703;49.588;6.260;2023-08-17T13:48:12;2.17;;;1.98;;
28481;SDS011;15703;49.588;6.260;2023-08-17T13:50:36;2.25;;;1.73;;
28481;SDS011;15703;49.588;6.260;2023-08-17T13:52:59;3.72;;;2.03;;
28481;SDS011;15703;49.588;6.260;2023-08-17T13:55:21;2.90;;;1.80;;
28481;SDS011;15703;49.588;6.260;2023-08-17T13:57:45;5.57;;;1.98;;
28481;SDS011;15703;49.588;6.260;2023-08-17T14:00:08;1.88;;;1.67;;
28481;SDS011;15703;49.588;6.260;2023-08-17T14:02:31;3.13;;;1.83;;
28481;SDS011;15703;49.588;6.260;2023-08-17T14:04:54;2.13;;;1.92;;
28481;SDS011;15703;49.588;6.260;2023-08-17T14:07:16;4.80;;;1.55;;
28481;SDS011;15703;49.588;6.260;2023-08-17T14:09:39;4.95;;;1.80;;
28481;SDS011;15703;49.588;6.260;2023-08-17T14:12:14;2.70;;;1.80;;
28481;SDS011;15703;49.588;6.260;2023-08-17T14:14:37;2.10;;;1.70;;
28481;SDS011;15703;49.588;6.260;2023-08-17T14:16:59;2.15;;;1.98;;
28481;SDS011;15703;49.588;6.260;2023-08-17T14:19:22;1.70;;;1.60;;
28481;SDS011;15703;49.588;6.260;2023-08-17T14:21:45;2.15;;;1.90;;
28481;SDS011;15703;49.588;6.260;2023-08-17T14:24:07;2.00;;;1.65;;
28481;SDS011;15703;49.588;6.260;2023-08-17T14:26:29;2.30;;;1.60;;
28481;SDS011;15703;49.588;6.260;2023-08-17T14:28:53;1.50;;;1.40;;
28481;SDS011;15703;49.588;6.260;2023-08-17T14:31:15;2.10;;;1.70;;
28481;SDS011;15703;49.588;6.260;2023-08-17T14:33:39;1.88;;;1.73;;